Neva Corners, Wisconsin
Current Conditions -  °F | °C
As of 1:15 AM on Friday 31 Oct 2014 (Local Time) from KAIG Reporting Station
Light Snow Light Snow  
Wind Chill: -6°   Ceiling: 900
Heat Index:   Visibility: 1.7mi
Dew Point: -1°   Wind: 16mph
Humidity: 97%   Direction: 350°N
Pressure: 30.06"   Gusts: 22mph
Location:  45.2445°N, 89.211°W
Report Text: KAIG 310615Z AUTO 35014G19KT 1 3/4SM -SN OVC009 00/00 A3006 RMK AO2 P0001 T10011005
Loading
Personal Weather Stations






























Interactive Weather Map
Tropical Storm Tracking
New forecast layout! Learn more

10-Day Weather Forecast

Advertisements
Track Severe Weather on mobile